sensor_id;sensor_type;location;lat;lon;timestamp;temperature;humidity
19728;DHT22;10015;52.530;13.390;2023-01-30T05:17:22;4.00;99.90
19728;DHT22;10015;52.530;13.390;2023-01-30T05:19:48;4.10;99.90
19728;DHT22;10015;52.530;13.390;2023-01-30T05:22:14;4.10;99.90
19728;DHT22;10015;52.530;13.390;2023-01-30T05:24:40;4.20;99.90
19728;DHT22;10015;52.530;13.390;2023-01-30T05:27:06;4.20;99.90
19728;DHT22;10015;52.530;13.390;2023-01-30T05:29:32;4.20;99.90
19728;DHT22;10015;52.530;13.390;2023-01-30T05:31:58;4.10;99.90
19728;DHT22;10015;52.530;13.390;2023-01-30T05:34:24;4.10;99.90
19728;DHT22;10015;52.530;13.390;2023-01-30T05:36:50;4.10;99.90
19728;DHT22;10015;52.530;13.390;2023-01-30T05:39:16;4.10;99.90
19728;DHT22;10015;52.530;13.390;2023-01-30T05:41:45;4.00;99.90
19728;DHT22;10015;52.530;13.390;2023-01-30T05:44:10;4.00;99.90
19728;DHT22;10015;52.530;13.390;2023-01-30T05:46:36;4.00;99.90
19728;DHT22;10015;52.530;13.390;2023-01-30T05:49:02;4.10;99.90
19728;DHT22;10015;52.530;13.390;2023-01-30T05:51:29;4.00;99.90
19728;DHT22;10015;52.530;13.390;2023-01-30T05:53:55;3.90;99.90
19728;DHT22;10015;52.530;13.390;2023-01-30T05:56:22;3.80;99.90
19728;DHT22;10015;52.530;13.390;2023-01-30T05:58:50;3.70;99.90
19728;DHT22;10015;52.530;13.390;2023-01-30T06:01:16;3.60;99.90
19728;DHT22;10015;52.530;13.390;2023-01-30T06:03:42;3.70;99.90
19728;DHT22;10015;52.530;13.390;2023-01-30T06:06:12;3.70;99.90
19728;DHT22;10015;52.530;13.390;2023-01-30T06:08:38;3.80;99.90
19728;DHT22;10015;52.530;13.390;2023-01-30T06:11:15;3.80;99.90
19728;DHT22;10015;52.530;13.390;2023-01-30T06:13:41;3.90;99.90
19728;DHT22;10015;52.530;13.390;2023-01-30T06:16:11;3.80;99.90
19728;DHT22;10015;52.530;13.390;2023-01-30T06:18:38;3.80;99.90
19728;DHT22;10015;52.530;13.390;2023-01-30T06:21:04;3.80;99.90
19728;DHT22;10015;52.530;13.390;2023-01-30T06:23:30;3.90;99.90
19728;DHT22;10015;52.530;13.390;2023-01-30T06:25:56;3.90;99.90
19728;DHT22;10015;52.530;13.390;2023-01-30T06:28:23;4.00;99.90
19728;DHT22;10015;52.530;13.390;2023-01-30T06:30:49;4.00;99.90
19728;DHT22;10015;52.530;13.390;2023-01-30T06:33:15;4.10;99.90
19728;DHT22;10015;52.530;13.390;2023-01-30T06:35:42;4.20;99.90
19728;DHT22;10015;52.530;13.390;2023-01-30T06:38:10;4.20;99.90
19728;DHT22;10015;52.530;13.390;2023-01-30T06:40:43;4.90;99.90
19728;DHT22;10015;52.530;13.390;2023-01-30T06:43:09;5.20;99.90
19728;DHT22;10015;52.530;13.390;2023-01-30T06:45:35;4.90;99.90
19728;DHT22;10015;52.530;13.390;2023-01-30T06:48:01;4.80;99.90
19728;DHT22;10015;52.530;13.390;2023-01-30T06:50:28;4.60;99.90
19728;DHT22;10015;52.530;13.390;2023-01-30T06:52:55;4.50;99.90
19728;DHT22;10015;52.530;13.390;2023-01-30T06:55:24;4.60;99.90
19728;DHT22;10015;52.530;13.390;2023-01-30T06:58:01;4.50;99.90
19728;DHT22;10015;52.530;13.390;2023-01-30T07:00:27;4.30;99.90
19728;DHT22;10015;52.530;13.390;2023-01-30T07:02:54;4.40;99.90
19728;DHT22;10015;52.530;13.390;2023-01-30T07:05:20;4.30;99.90
19728;DHT22;10015;52.530;13.390;2023-01-30T07:07:46;4.30;99.90
19728;DHT22;10015;52.530;13.390;2023-01-30T07:10:12;4.30;99.90
19728;DHT22;10015;52.530;13.390;2023-01-30T07:12:38;4.30;99.90
19728;DHT22;10015;52.530;13.390;2023-01-30T07:15:07;4.30;99.90
19728;DHT22;10015;52.530;13.390;2023-01-30T07:17:33;4.30;99.90
19728;DHT22;10015;52.530;13.390;2023-01-30T07:19:59;4.40;99.90
19728;DHT22;10015;52.530;13.390;2023-01-30T07:22:25;4.40;99.90
19728;DHT22;10015;52.530;13.390;2023-01-30T07:24:51;4.40;99.90
19728;DHT22;10015;52.530;13.390;2023-01-30T07:27:17;4.30;99.90
19728;DHT22;10015;52.530;13.390;2023-01-30T07:29:43;4.40;99.90
19728;DHT22;10015;52.530;13.390;2023-01-30T07:32:15;4.50;99.90
19728;DHT22;10015;52.530;13.390;2023-01-30T07:34:43;4.50;99.90
19728;DHT22;10015;52.530;13.390;2023-01-30T07:37:09;4.60;99.90
19728;DHT22;10015;52.530;13.390;2023-01-30T07:39:35;4.60;99.90
19728;DHT22;10015;52.530;13.390;2023-01-30T07:42:02;4.60;99.90
19728;DHT22;10015;52.530;13.390;2023-01-30T07:44:29;4.60;99.90
19728;DHT22;10015;52.530;13.390;2023-01-30T07:46:55;4.60;99.90
19728;DHT22;10015;52.530;13.390;2023-01-30T07:49:21;4.60;99.90
19728;DHT22;10015;52.530;13.390;2023-01-30T07:51:47;4.60;99.90
19728;DHT22;10015;52.530;13.390;2023-01-30T07:54:13;4.70;99.90
19728;DHT22;10015;52.530;13.390;2023-01-30T07:56:39;4.60;99.90
19728;DHT22;10015;52.530;13.390;2023-01-30T07:59:04;4.70;99.90
19728;DHT22;10015;52.530;13.390;2023-01-30T08:01:31;4.70;99.90
19728;DHT22;10015;52.530;13.390;2023-01-30T08:03:57;4.80;99.90
19728;DHT22;10015;52.530;13.390;2023-01-30T08:06:23;4.80;99.90
19728;DHT22;10015;52.530;13.390;2023-01-30T08:08:49;4.80;99.90
19728;DHT22;10015;52.530;13.390;2023-01-30T08:11:15;4.80;99.90
19728;DHT22;10015;52.530;13.390;2023-01-30T08:13:43;4.90;99.90
19728;DHT22;10015;52.530;13.390;2023-01-30T08:16:09;5.00;99.90
19728;DHT22;10015;52.530;13.390;2023-01-30T08:18:35;4.80;99.90
19728;DHT22;10015;52.530;13.390;2023-01-30T08:21:03;4.90;99.90
19728;DHT22;10015;52.530;13.390;2023-01-30T08:23:30;5.00;99.90
19728;DHT22;10015;52.530;13.390;2023-01-30T08:25:58;5.00;99.90
19728;DHT22;10015;52.530;13.390;2023-01-30T08:28:50;5.00;99.90
19728;DHT22;10015;52.530;13.390;2023-01-30T08:31:16;5.00;99.90
19728;DHT22;10015;52.530;13.390;2023-01-30T08:33:43;5.00;99.90
19728;DHT22;10015;52.530;13.390;2023-01-30T08:36:09;5.10;99.90
19728;DHT22;10015;52.530;13.390;2023-01-30T08:38:35;5.10;99.90
19728;DHT22;10015;52.530;13.390;2023-01-30T08:41:04;5.10;99.90
19728;DHT22;10015;52.530;13.390;2023-01-30T08:43:30;5.10;99.90
19728;DHT22;10015;52.530;13.390;2023-01-30T08:45:56;5.20;99.90
19728;DHT22;10015;52.530;13.390;2023-01-30T08:48:22;5.20;99.90
19728;DHT22;10015;52.530;13.390;2023-01-30T08:50:53;5.20;99.90
19728;DHT22;10015;52.530;13.390;2023-01-30T08:53:20;5.20;99.90
19728;DHT22;10015;52.530;13.390;2023-01-30T08:55:49;5.20;99.90
19728;DHT22;10015;52.530;13.390;2023-01-30T08:58:15;5.20;99.90
19728;DHT22;10015;52.530;13.390;2023-01-30T09:00:41;5.20;99.90
19728;DHT22;10015;52.530;13.390;2023-01-30T09:03:09;5.30;99.90
19728;DHT22;10015;52.530;13.390;2023-01-30T09:05:37;5.20;99.90
19728;DHT22;10015;52.530;13.390;2023-01-30T09:08:03;5.30;99.90
19728;DHT22;10015;52.530;13.390;2023-01-30T09:10:29;5.30;99.90
19728;DHT22;10015;52.530;13.390;2023-01-30T09:12:55;5.40;99.90
19728;DHT22;10015;52.530;13.390;2023-01-30T09:15:22;5.40;99.90
19728;DHT22;10015;52.530;13.390;2023-01-30T09:17:48;5.50;99.90
19728;DHT22;10015;52.530;13.390;2023-01-30T09:20:15;5.60;99.90
19728;DHT22;10015;52.530;13.390;2023-01-30T09:22:41;5.60;99.90
19728;DHT22;10015;52.530;13.390;2023-01-30T09:25:08;5.50;99.90
19728;DHT22;10015;52.530;13.390;2023-01-30T09:27:35;5.60;99.90
19728;DHT22;10015;52.530;13.390;2023-01-30T09:30:03;5.60;99.90
19728;DHT22;10015;52.530;13.390;2023-01-30T09:32:29;5.50;99.90
19728;DHT22;10015;52.530;13.390;2023-01-30T09:34:55;5.60;99.90
19728;DHT22;10015;52.530;13.390;2023-01-30T09:37:21;5.70;99.90
19728;DHT22;10015;52.530;13.390;2023-01-30T09:39:48;5.80;99.90
19728;DHT22;10015;52.530;13.390;2023-01-30T09:55:59;5.80;99.90
19728;DHT22;10015;52.530;13.390;2023-01-30T09:58:38;5.80;99.90
19728;DHT22;10015;52.530;13.390;2023-01-30T10:01:10;5.80;99.90
19728;DHT22;10015;52.530;13.390;2023-01-30T10:04:11;5.90;99.90
19728;DHT22;10015;52.530;13.390;2023-01-30T10:06:38;5.80;99.90
19728;DHT22;10015;52.530;13.390;2023-01-30T10:09:32;5.80;99.90
19728;DHT22;10015;52.530;13.390;2023-01-30T10:26:22;6.10;99.90
19728;DHT22;10015;52.530;13.390;2023-01-30T10:29:12;6.10;99.90
19728;DHT22;10015;52.530;13.390;2023-01-30T10:31:50;6.20;99.90
19728;DHT22;10015;52.530;13.390;2023-01-30T10:34:29;6.20;99.90
19728;DHT22;10015;52.530;13.390;2023-01-30T10:42:54;6.20;99.90
19728;DHT22;10015;52.530;13.390;2023-01-30T10:45:37;6.20;99.90
19728;DHT22;10015;52.530;13.390;2023-01-30T10:51:10;6.20;99.90
19728;DHT22;10015;52.530;13.390;2023-01-30T10:53:45;6.20;99.90
19728;DHT22;10015;52.530;13.390;2023-01-30T10:56:19;6.20;99.90
19728;DHT22;10015;52.530;13.390;2023-01-30T10:58:56;6.10;99.90
19728;DHT22;10015;52.530;13.390;2023-01-30T11:04:00;6.10;99.90
19728;DHT22;10015;52.530;13.390;2023-01-30T11:06:27;6.10;99.90
19728;DHT22;10015;52.530;13.390;2023-01-30T11:08:54;6.10;99.90
19728;DHT22;10015;52.530;13.390;2023-01-30T11:14:10;6.30;99.90
19728;DHT22;10015;52.530;13.390;2023-01-30T11:16:46;6.40;99.90
19728;DHT22;10015;52.530;13.390;2023-01-30T11:19:15;6.40;99.90
19728;DHT22;10015;52.530;13.390;2023-01-30T11:21:42;6.40;99.90
19728;DHT22;10015;52.530;13.390;2023-01-30T11:24:16;6.40;99.90
19728;DHT22;10015;52.530;13.390;2023-01-30T11:26:43;6.50;99.90
19728;DHT22;10015;52.530;13.390;2023-01-30T11:29:27;6.50;99.90
19728;DHT22;10015;52.530;13.390;2023-01-30T11:31:55;6.60;99.90
19728;DHT22;10015;52.530;13.390;2023-01-30T11:34:22;6.60;99.90
19728;DHT22;10015;52.530;13.390;2023-01-30T11:36:50;6.50;99.90
19728;DHT22;10015;52.530;13.390;2023-01-30T11:44:28;6.50;99.90
19728;DHT22;10015;52.530;13.390;2023-01-30T11:46:58;6.50;99.90
19728;DHT22;10015;52.530;13.390;2023-01-30T11:49:30;6.50;99.90
19728;DHT22;10015;52.530;13.390;2023-01-30T11:51:58;6.50;99.90
19728;DHT22;10015;52.530;13.390;2023-01-30T11:54:32;6.50;99.90
19728;DHT22;10015;52.530;13.390;2023-01-30T11:57:02;6.50;99.90
19728;DHT22;10015;52.530;13.390;2023-01-30T11:59:35;6.40;99.90
19728;DHT22;10015;52.530;13.390;2023-01-30T12:02:24;6.20;99.90
19728;DHT22;10015;52.530;13.390;2023-01-30T12:04:54;6.10;99.90
19728;DHT22;10015;52.530;13.390;2023-01-30T12:07:26;5.90;99.90
19728;DHT22;10015;52.530;13.390;2023-01-30T12:09:55;5.80;99.90
19728;DHT22;10015;52.530;13.390;2023-01-30T12:12:36;5.80;99.90
19728;DHT22;10015;52.530;13.390;2023-01-30T12:15:28;5.80;99.90
19728;DHT22;10015;52.530;13.390;2023-01-30T12:18:36;5.70;99.90
19728;DHT22;10015;52.530;13.390;2023-01-30T12:23:39;5.70;99.90
19728;DHT22;10015;52.530;13.390;2023-01-30T12:26:17;5.90;99.90
19728;DHT22;10015;52.530;13.390;2023-01-30T12:31:28;6.10;99.90
19728;DHT22;10015;52.530;13.390;2023-01-30T12:33:57;6.20;99.90
19728;DHT22;10015;52.530;13.390;2023-01-30T12:39:36;6.60;99.90
19728;DHT22;10015;52.530;13.390;2023-01-30T12:56:42;7.10;99.90
19728;DHT22;10015;52.530;13.390;2023-01-30T12:59:21;7.20;99.90
19728;DHT22;10015;52.530;13.390;2023-01-30T13:18:47;6.90;99.90
19728;DHT22;10015;52.530;13.390;2023-01-30T13:26:36;6.90;99.90
19728;DHT22;10015;52.530;13.390;2023-01-30T13:29:25;6.90;99.90
19728;DHT22;10015;52.530;13.390;2023-01-30T13:31:55;6.80;99.90
19728;DHT22;10015;52.530;13.390;2023-01-30T13:34:38;6.80;99.90
19728;DHT22;10015;52.530;13.390;2023-01-30T13:37:08;7.00;99.90
19728;DHT22;10015;52.530;13.390;2023-01-30T13:44:58;6.90;99.90
19728;DHT22;10015;52.530;13.390;2023-01-30T13:50:21;7.00;99.90
19728;DHT22;10015;52.530;13.390;2023-01-30T13:53:31;6.80;99.90
19728;DHT22;10015;52.530;13.390;2023-01-30T13:58:46;6.70;99.90
19728;DHT22;10015;52.530;13.390;2023-01-30T14:01:14;6.50;99.90
19728;DHT22;10015;52.530;13.390;2023-01-30T14:03:41;6.50;99.90
19728;DHT22;10015;52.530;13.390;2023-01-30T14:08:48;6.20;99.90
19728;DHT22;10015;52.530;13.390;2023-01-30T14:11:34;6.20;99.90
19728;DHT22;10015;52.530;13.390;2023-01-30T14:14:23;6.20;99.90
19728;DHT22;10015;52.530;13.390;2023-01-30T14:16:52;6.10;99.90
19728;DHT22;10015;52.530;13.390;2023-01-30T14:21:59;5.90;99.90
19728;DHT22;10015;52.530;13.390;2023-01-30T14:24:26;5.80;99.90
19728;DHT22;10015;52.530;13.390;2023-01-30T14:27:02;5.80;99.90
19728;DHT22;10015;52.530;13.390;2023-01-30T14:34:44;5.90;99.90
19728;DHT22;10015;52.530;13.390;2023-01-30T14:45:54;5.70;99.90
19728;DHT22;10015;52.530;13.390;2023-01-30T14:56:46;5.60;99.90
19728;DHT22;10015;52.530;13.390;2023-01-30T15:02:05;5.50;99.90
19728;DHT22;10015;52.530;13.390;2023-01-30T15:09:49;5.40;99.90
19728;DHT22;10015;52.530;13.390;2023-01-30T15:12:57;5.30;99.90
19728;DHT22;10015;52.530;13.390;2023-01-30T15:21:43;5.30;99.90
19728;DHT22;10015;52.530;13.390;2023-01-30T15:32:32;5.20;99.90
19728;DHT22;10015;52.530;13.390;2023-01-30T15:42:44;5.10;99.90
19728;DHT22;10015;52.530;13.390;2023-01-30T15:50:54;5.30;99.90
19728;DHT22;10015;52.530;13.390;2023-01-30T15:53:30;5.20;99.90
19728;DHT22;10015;52.530;13.390;2023-01-30T15:56:00;5.20;99.90
19728;DHT22;10015;52.530;13.390;2023-01-30T15:58:28;5.20;99.90
19728;DHT22;10015;52.530;13.390;2023-01-30T16:00:56;5.20;99.90
19728;DHT22;10015;52.530;13.390;2023-01-30T16:03:31;5.20;99.90
19728;DHT22;10015;52.530;13.390;2023-01-30T16:05:59;5.20;99.90
19728;DHT22;10015;52.530;13.390;2023-01-30T16:08:31;5.20;99.90
19728;DHT22;10015;52.530;13.390;2023-01-30T16:10:57;5.20;99.90
19728;DHT22;10015;52.530;13.390;2023-01-30T16:13:26;5.20;99.90
19728;DHT22;10015;52.530;13.390;2023-01-30T16:16:09;5.20;99.90
19728;DHT22;10015;52.530;13.390;2023-01-30T16:18:45;5.30;99.90
19728;DHT22;10015;52.530;13.390;2023-01-30T16:21:50;5.30;99.90
19728;DHT22;10015;52.530;13.390;2023-01-30T16:24:20;5.30;99.90
19728;DHT22;10015;52.530;13.390;2023-01-30T16:26:50;5.40;99.90
19728;DHT22;10015;52.530;13.390;2023-01-30T16:29:19;5.40;99.90
19728;DHT22;10015;52.530;13.390;2023-01-30T16:31:49;5.30;99.90
19728;DHT22;10015;52.530;13.390;2023-01-30T16:36:54;5.40;99.90
19728;DHT22;10015;52.530;13.390;2023-01-30T16:39:35;5.40;99.90
19728;DHT22;10015;52.530;13.390;2023-01-30T16:44:48;5.40;99.90
19728;DHT22;10015;52.530;13.390;2023-01-30T16:47:27;5.40;99.90
19728;DHT22;10015;52.530;13.390;2023-01-30T16:49:56;5.40;99.90
19728;DHT22;10015;52.530;13.390;2023-01-30T16:52:24;5.40;99.90
19728;DHT22;10015;52.530;13.390;2023-01-30T16:54:55;5.40;99.90
19728;DHT22;10015;52.530;13.390;2023-01-30T17:00:19;5.30;99.90
19728;DHT22;10015;52.530;13.390;2023-01-30T17:03:27;5.30;99.90
19728;DHT22;10015;52.530;13.390;2023-01-30T17:05:53;5.20;99.90
19728;DHT22;10015;52.530;13.390;2023-01-30T17:08:44;5.20;99.90
19728;DHT22;10015;52.530;13.390;2023-01-30T17:14:18;5.20;99.90
19728;DHT22;10015;52.530;13.390;2023-01-30T17:16:58;5.20;99.90
19728;DHT22;10015;52.530;13.390;2023-01-30T17:19:25;5.20;99.90
19728;DHT22;10015;52.530;13.390;2023-01-30T17:21:52;5.20;99.90
19728;DHT22;10015;52.530;13.390;2023-01-30T17:24:21;5.20;99.90
19728;DHT22;10015;52.530;13.390;2023-01-30T17:26:49;5.30;99.90
19728;DHT22;10015;52.530;13.390;2023-01-30T17:29:16;5.30;99.90
19728;DHT22;10015;52.530;13.390;2023-01-30T17:31:52;5.30;99.90
19728;DHT22;10015;52.530;13.390;2023-01-30T17:34:20;5.30;99.90
19728;DHT22;10015;52.530;13.390;2023-01-30T17:36:48;5.30;99.90
19728;DHT22;10015;52.530;13.390;2023-01-30T17:39:17;5.30;99.90
19728;DHT22;10015;52.530;13.390;2023-01-30T17:41:43;5.30;99.90
19728;DHT22;10015;52.530;13.390;2023-01-30T17:44:10;5.30;99.90
19728;DHT22;10015;52.530;13.390;2023-01-30T17:46:42;5.30;99.90
19728;DHT22;10015;52.530;13.390;2023-01-30T17:49:20;5.30;99.90
19728;DHT22;10015;52.530;13.390;2023-01-30T17:51:47;5.40;99.90
19728;DHT22;10015;52.530;13.390;2023-01-30T17:54:14;5.40;99.90
19728;DHT22;10015;52.530;13.390;2023-01-30T17:56:44;5.40;99.90
19728;DHT22;10015;52.530;13.390;2023-01-30T17:59:16;5.40;99.90
19728;DHT22;10015;52.530;13.390;2023-01-30T18:01:44;5.40;99.90
19728;DHT22;10015;52.530;13.390;2023-01-30T18:04:10;5.40;99.90
19728;DHT22;10015;52.530;13.390;2023-01-30T18:06:39;5.40;99.90
19728;DHT22;10015;52.530;13.390;2023-01-30T18:09:05;5.40;99.90
19728;DHT22;10015;52.530;13.390;2023-01-30T18:11:31;5.50;99.90
19728;DHT22;10015;52.530;13.390;2023-01-30T18:13:58;5.50;99.90
19728;DHT22;10015;52.530;13.390;2023-01-30T18:16:29;5.50;99.90
19728;DHT22;10015;52.530;13.390;2023-01-30T18:19:01;5.50;99.90
19728;DHT22;10015;52.530;13.390;2023-01-30T18:21:32;5.60;99.90
19728;DHT22;10015;52.530;13.390;2023-01-30T18:23:59;5.60;99.90
19728;DHT22;10015;52.530;13.390;2023-01-30T18:26:25;5.60;99.90
19728;DHT22;10015;52.530;13.390;2023-01-30T18:28:52;5.60;99.90
19728;DHT22;10015;52.530;13.390;2023-01-30T18:31:18;5.70;99.90
19728;DHT22;10015;52.530;13.390;2023-01-30T18:33:44;5.70;99.90
19728;DHT22;10015;52.530;13.390;2023-01-30T18:36:13;5.70;99.90
19728;DHT22;10015;52.530;13.390;2023-01-30T18:38:39;5.70;99.90
19728;DHT22;10015;52.530;13.390;2023-01-30T18:41:18;5.70;99.90
19728;DHT22;10015;52.530;13.390;2023-01-30T18:43:45;5.80;99.90
19728;DHT22;10015;52.530;13.390;2023-01-30T18:46:15;5.80;99.90
19728;DHT22;10015;52.530;13.390;2023-01-30T18:48:42;5.80;99.90
19728;DHT22;10015;52.530;13.390;2023-01-30T18:51:21;5.80;99.90
19728;DHT22;10015;52.530;13.390;2023-01-30T18:53:49;5.80;99.90
19728;DHT22;10015;52.530;13.390;2023-01-30T18:56:19;5.80;99.90
19728;DHT22;10015;52.530;13.390;2023-01-30T18:58:49;5.80;99.90
19728;DHT22;10015;52.530;13.390;2023-01-30T19:01:22;5.80;99.90
19728;DHT22;10015;52.530;13.390;2023-01-30T19:03:52;5.80;99.90
19728;DHT22;10015;52.530;13.390;2023-01-30T19:06:19;5.80;99.90
19728;DHT22;10015;52.530;13.390;2023-01-30T19:08:45;5.80;99.90
19728;DHT22;10015;52.530;13.390;2023-01-30T19:11:14;5.80;99.90
19728;DHT22;10015;52.530;13.390;2023-01-30T19:14:01;5.80;99.90
19728;DHT22;10015;52.530;13.390;2023-01-30T19:16:28;5.80;99.90
19728;DHT22;10015;52.530;13.390;2023-01-30T19:18:55;5.90;99.90
19728;DHT22;10015;52.530;13.390;2023-01-30T19:21:23;5.80;99.90
19728;DHT22;10015;52.530;13.390;2023-01-30T19:23:50;5.80;99.90
19728;DHT22;10015;52.530;13.390;2023-01-30T19:26:18;5.90;99.90
19728;DHT22;10015;52.530;13.390;2023-01-30T19:28:44;5.90;99.90
19728;DHT22;10015;52.530;13.390;2023-01-30T19:31:20;5.90;99.90
19728;DHT22;10015;52.530;13.390;2023-01-30T19:33:55;5.80;99.90
19728;DHT22;10015;52.530;13.390;2023-01-30T19:36:24;5.90;99.90
19728;DHT22;10015;52.530;13.390;2023-01-30T19:38:51;5.90;99.90
19728;DHT22;10015;52.530;13.390;2023-01-30T19:41:23;5.80;99.90
19728;DHT22;10015;52.530;13.390;2023-01-30T19:43:51;5.80;99.90
19728;DHT22;10015;52.530;13.390;2023-01-30T19:46:17;5.80;99.90
19728;DHT22;10015;52.530;13.390;2023-01-30T19:48:44;5.80;99.90
19728;DHT22;10015;52.530;13.390;2023-01-30T19:51:18;5.80;99.90
19728;DHT22;10015;52.530;13.390;2023-01-30T19:53:50;5.90;99.90
19728;DHT22;10015;52.530;13.390;2023-01-30T19:56:17;5.90;99.90
19728;DHT22;10015;52.530;13.390;2023-01-30T19:58:46;5.90;99.90
19728;DHT22;10015;52.530;13.390;2023-01-30T20:01:14;5.90;99.90
19728;DHT22;10015;52.530;13.390;2023-01-30T20:03:40;6.00;99.90
19728;DHT22;10015;52.530;13.390;2023-01-30T20:06:14;5.90;99.90
19728;DHT22;10015;52.530;13.390;2023-01-30T20:08:41;5.90;99.90
19728;DHT22;10015;52.530;13.390;2023-01-30T20:11:11;5.80;99.90
19728;DHT22;10015;52.530;13.390;2023-01-30T20:13:39;5.80;99.90
19728;DHT22;10015;52.530;13.390;2023-01-30T20:16:11;5.80;99.90
19728;DHT22;10015;52.530;13.390;2023-01-30T20:18:37;5.70;99.90
19728;DHT22;10015;52.530;13.390;2023-01-30T20:21:13;5.70;99.90
19728;DHT22;10015;52.530;13.390;2023-01-30T20:23:40;5.60;99.90
19728;DHT22;10015;52.530;13.390;2023-01-30T20:26:08;5.60;99.90
19728;DHT22;10015;52.530;13.390;2023-01-30T20:28:36;5.60;99.90
19728;DHT22;10015;52.530;13.390;2023-01-30T20:31:10;5.60;99.90
19728;DHT22;10015;52.530;13.390;2023-01-30T20:33:37;5.60;99.90
19728;DHT22;10015;52.530;13.390;2023-01-30T20:36:05;5.60;99.90
19728;DHT22;10015;52.530;13.390;2023-01-30T20:38:33;5.60;99.90
19728;DHT22;10015;52.530;13.390;2023-01-30T20:41:14;5.60;99.90
19728;DHT22;10015;52.530;13.390;2023-01-30T20:43:42;5.60;99.90
19728;DHT22;10015;52.530;13.390;2023-01-30T20:46:16;5.60;99.90
19728;DHT22;10015;52.530;13.390;2023-01-30T20:48:43;5.60;99.90
19728;DHT22;10015;52.530;13.390;2023-01-30T20:51:16;5.60;99.90
19728;DHT22;10015;52.530;13.390;2023-01-30T20:53:48;5.60;99.90
19728;DHT22;10015;52.530;13.390;2023-01-30T20:56:14;5.60;99.90
19728;DHT22;10015;52.530;13.390;2023-01-30T20:58:41;5.60;99.90
19728;DHT22;10015;52.530;13.390;2023-01-30T21:01:12;5.60;99.90
19728;DHT22;10015;52.530;13.390;2023-01-30T21:03:41;5.60;99.90
19728;DHT22;10015;52.530;13.390;2023-01-30T21:06:11;5.70;99.90
19728;DHT22;10015;52.530;13.390;2023-01-30T21:08:38;5.70;99.90
19728;DHT22;10015;52.530;13.390;2023-01-30T21:11:06;5.70;99.90
19728;DHT22;10015;52.530;13.390;2023-01-30T21:13:33;5.70;99.90
19728;DHT22;10015;52.530;13.390;2023-01-30T21:16:20;5.70;99.90
19728;DHT22;10015;52.530;13.390;2023-01-30T21:18:55;5.60;99.90
19728;DHT22;10015;52.530;13.390;2023-01-30T21:23:53;5.70;99.90
19728;DHT22;10015;52.530;13.390;2023-01-30T21:26:26;5.60;99.90
19728;DHT22;10015;52.530;13.390;2023-01-30T21:28:52;5.60;99.90
19728;DHT22;10015;52.530;13.390;2023-01-30T21:31:26;5.70;99.90
19728;DHT22;10015;52.530;13.390;2023-01-30T21:33:55;5.70;99.90
19728;DHT22;10015;52.530;13.390;2023-01-30T21:36:22;5.70;99.90
19728;DHT22;10015;52.530;13.390;2023-01-30T21:38:48;5.80;99.90
19728;DHT22;10015;52.530;13.390;2023-01-30T21:41:38;5.80;99.90
19728;DHT22;10015;52.530;13.390;2023-01-30T21:44:29;5.90;99.90
19728;DHT22;10015;52.530;13.390;2023-01-30T21:46:56;6.00;99.90
19728;DHT22;10015;52.530;13.390;2023-01-30T21:49:22;6.00;99.90
19728;DHT22;10015;52.530;13.390;2023-01-30T21:51:53;5.90;99.90
19728;DHT22;10015;52.530;13.390;2023-01-30T21:54:19;5.90;99.90
19728;DHT22;10015;52.530;13.390;2023-01-30T21:56:46;5.90;99.90
19728;DHT22;10015;52.530;13.390;2023-01-30T21:59:12;5.90;99.90
19728;DHT22;10015;52.530;13.390;2023-01-30T22:01:40;6.00;99.90
19728;DHT22;10015;52.530;13.390;2023-01-30T22:04:09;5.90;99.90
19728;DHT22;10015;52.530;13.390;2023-01-30T22:06:37;5.80;99.90
19728;DHT22;10015;52.530;13.390;2023-01-30T22:09:03;5.70;99.90
19728;DHT22;10015;52.530;13.390;2023-01-30T22:11:33;5.60;99.90
19728;DHT22;10015;52.530;13.390;2023-01-30T22:13:59;5.70;99.90
19728;DHT22;10015;52.530;13.390;2023-01-30T22:16:27;5.50;99.90
19728;DHT22;10015;52.530;13.390;2023-01-30T22:19:01;5.50;99.90
19728;DHT22;10015;52.530;13.390;2023-01-30T22:21:30;5.50;99.90
19728;DHT22;10015;52.530;13.390;2023-01-30T22:23:57;5.50;99.90
19728;DHT22;10015;52.530;13.390;2023-01-30T22:26:24;5.40;99.90
19728;DHT22;10015;52.530;13.390;2023-01-30T22:28:55;5.30;99.90
19728;DHT22;10015;52.530;13.390;2023-01-30T22:31:24;5.30;99.90
19728;DHT22;10015;52.530;13.390;2023-01-30T22:33:52;5.40;99.90
19728;DHT22;10015;52.530;13.390;2023-01-30T22:36:22;5.30;99.90
19728;DHT22;10015;52.530;13.390;2023-01-30T22:38:48;5.20;99.90
19728;DHT22;10015;52.530;13.390;2023-01-30T22:41:18;5.20;99.90
19728;DHT22;10015;52.530;13.390;2023-01-30T22:43:49;5.20;99.90
19728;DHT22;10015;52.530;13.390;2023-01-30T22:46:17;5.10;99.90
19728;DHT22;10015;52.530;13.390;2023-01-30T22:48:43;5.10;99.90
19728;DHT22;10015;52.530;13.390;2023-01-30T22:51:13;5.00;99.90
19728;DHT22;10015;52.530;13.390;2023-01-30T22:54:04;5.10;99.90
19728;DHT22;10015;52.530;13.390;2023-01-30T22:56:37;5.00;99.90
19728;DHT22;10015;52.530;13.390;2023-01-30T22:59:04;5.10;99.90
19728;DHT22;10015;52.530;13.390;2023-01-30T23:01:32;5.00;99.90
19728;DHT22;10015;52.530;13.390;2023-01-30T23:04:10;5.00;99.90
19728;DHT22;10015;52.530;13.390;2023-01-30T23:06:38;4.90;99.90
19728;DHT22;10015;52.530;13.390;2023-01-30T23:09:06;4.90;99.90
19728;DHT22;10015;52.530;13.390;2023-01-30T23:11:38;4.90;99.90
19728;DHT22;10015;52.530;13.390;2023-01-30T23:14:10;4.80;99.90
19728;DHT22;10015;52.530;13.390;2023-01-30T23:16:38;4.80;99.90
19728;DHT22;10015;52.530;13.390;2023-01-30T23:19:06;4.90;99.90
19728;DHT22;10015;52.530;13.390;2023-01-30T23:21:39;4.80;99.90
19728;DHT22;10015;52.530;13.390;2023-01-30T23:24:11;4.80;99.90
19728;DHT22;10015;52.530;13.390;2023-01-30T23:26:40;4.90;99.90
19728;DHT22;10015;52.530;13.390;2023-01-30T23:29:08;4.90;99.90
19728;DHT22;10015;52.530;13.390;2023-01-30T23:31:35;4.80;99.90
19728;DHT22;10015;52.530;13.390;2023-01-30T23:34:04;4.70;99.90
19728;DHT22;10015;52.530;13.390;2023-01-30T23:36:31;4.70;99.90
19728;DHT22;10015;52.530;13.390;2023-01-30T23:38:58;4.80;99.90
19728;DHT22;10015;52.530;13.390;2023-01-30T23:41:28;4.80;99.90
19728;DHT22;10015;52.530;13.390;2023-01-30T23:43:55;4.80;99.90
19728;DHT22;10015;52.530;13.390;2023-01-30T23:46:26;4.80;99.90
19728;DHT22;10015;52.530;13.390;2023-01-30T23:48:56;4.70;99.90
19728;DHT22;10015;52.530;13.390;2023-01-30T23:51:24;4.70;99.90
19728;DHT22;10015;52.530;13.390;2023-01-30T23:53:51;4.70;99.90
19728;DHT22;10015;52.530;13.390;2023-01-30T23:56:19;4.70;99.90
19728;DHT22;10015;52.530;13.390;2023-01-30T23:58:45;4.80;99.90
